ADDS METAR Data INFO
IDs: Format: Raw Decoded Include TAF

Data at: 1929 UTC 19 Jul 2018

KLHX 191853Z AUTO 03010G16KT 10SM CLR 38/08 A3002 RMK AO2 SLP089 T03780078
KLHX 191753Z AUTO VRB03KT 10SM CLR 36/12 A3004 RMK AO2 SLP098 6//// T03560122 10361 20200
KLHX 191653Z AUTO 00000KT 10SM CLR 33/16 A3005 RMK AO2 SLP104 T03330156
KLHX 191553Z AUTO 35006KT 10SM CLR 30/17 A3005 RMK AO2 SLP107 T03000167